AirNav   ATP
 
 1219 users online  

FL14 John Hopkins All Childrens Hospital Heliport
St. Petersburg, Florida, USA

GOING TO ST. PETERSBURG?


FAA INFORMATION EFFECTIVE 08 NOVEMBER 2018

Location

FAA Identifier: FL14
Lat/Long: 27-45-54.0000N / 082-38-26.0000W
27-45.900000N / 082-38.433333W
27.7650000 / -82.6405556
(estimated)
Elevation: 177 ft. / 54 m (estimated)
From city: 1 mile SW of ST. PETERSBURG, FL
Time zone: UTC -5 (UTC -4 during Daylight Saving Time)
Zip code: 33701

Heliport Operations

Heliport use: Private use. Permission required prior to landing
Activation date: 04/2015
Control tower: no
ARTCC: MIAMI CENTER
FSS: SAINT PETERSBURG FLIGHT SERVICE STATION
Attendance: CONTINUOUS
Wind indicator: lighted
Segmented circle: no

Heliport Communications

WX ASOS at SPG (0.7 nm E): 118.875 (727-821-4334)
WX ASOS at PIE (9 nm N): PHONE 727-531-3456
WX AWOS-3 at TPF (14 nm NE): 118.925 (813-251-6824)
WX ASOS at TPA (14 nm NE): PHONE 813-873-7228
WX AWOS-3P at CLW (14 nm NW): 119.225 (727-449-2184)

Nearby radio navigation aids

VOR radial/distance  VOR name  Freq  Var
PIEr170/8.9ST PETERSBURG VORTAC116.4005W
SRQr354/21.9SARASOTA VOR/DME117.0005W
LALr247/35.8LAKELAND VORTAC116.0001E

 
NDB name  Hdg/Dist  Freq  Var  ID
CAPOK171/14.236005WPI .--. ..

Heliport Services

Runway Information

Helipad H1

Dimensions: 54 x 54 ft. / 16 x 16 m
Surface: ROOF/TOP
Runway edge lights: PERI
Traffic pattern: leftleft

Heliport Ownership and Management from official FAA records

Ownership: Privately-owned
Owner: JOHN HOPKINS ALL CHILDRENS HOSPITAL
501 6TH AVE SOUTH
ST. PETERSBURG, FL 33701
Phone 727-767-4446
Manager: LARRY GREEN
501 6TH AVE SOUTH
ST. PETERSBURG, FL 33701
Phone 727-767-4446

Additional Remarks

MEDICAL USE
HELIPAD STRENGTH MARKED AT 25,000 LBS BUT CAN ACCOMODATE UP TO 30,000 LBS
STANDARD HELIPAD MARKINGS - GOOD CONDITION
CHURCH SPIRE 250 FT NORTHEAST
FINAL APCH AND TKOF AREA 97.2 X 97.2 FT

Instrument Procedures

There are no published instrument procedures at FL14.

Some nearby airports with instrument procedures:

KSPG - Albert Whitted Airport (1 nm E)
KMCF - MacDill Air Force Base (8 nm NE)
KPIE - St Pete-Clearwater International Airport (9 nm N)
KTPF - Peter O Knight Airport (14 nm NE)
KTPA - Tampa International Airport (14 nm NE)
KCLW - Clearwater Air Park (14 nm NW)
 
Loc | Ops | Rwys | IFR | FBO | Links
Com | Nav | Svcs | Stats | Notes


 
Aerial photo
No photo
 
Airport distance calculator
Flying to John Hopkins All Childrens Hospital Heliport? Find the distance to fly.

From to FL14

Sunrise and sunset
Times for 20-Nov-2018
 Local
(UTC-5)
 Zulu
(UTC)
Morning civil twilight06:3211:32
Sunrise06:5711:57
Sunset17:3622:36
Evening civil twilight18:0123:01

Current date and time
Zulu (UTC)  20-Nov-2018 21:05:38
Local (UTC-5)  20-Nov-2018 16:05:38
 
METAR
KSPG 202053Z 34012KT 10SM BKN025 BKN030 24/17 A3003 RMK AO2 SLP168 T02390167 55009
KMCF 
8nm NE 
202056Z AUTO 30008KT 10SM SCT031 SCT220 23/17 A3005 RMK AO2 SLP179 T02320174 55007 FZRANO $
KPIE 
9nm N 
202053Z AUTO 33015KT 10SM CLR 23/18 A3005 RMK AO2 SLP176 T02280183 55003
KTPA 
13nm NE 
202053Z 33015G21KT 10SM FEW022 SCT150 BKN240 24/17 A3006 RMK AO2 WSHFT 2028 SLP177 T02390172 55005
KTPF 
14nm NE 
202055Z AUTO 32005KT 10SM CLR 25/19 A3005 RMK AO2
KCLW 
14nm NW 
202055Z AUTO 35010G17KT 10SM SCT011 21/16 A3007 RMK AO2
TAF
KMCF 
8nm NE 
201700Z 2017/2123 13006KT 8000 -SHRA BKN020 OVC100 QNH3005INS BECMG 2018/2019 02006KT 9999 NSW SCT020 BKN080 QNH3001INS BECMG 2103/2104 02006KT 8000 BR SCT015 BKN050 QNH3012INS BECMG 2114/2115 36012KT 9999 NSW SCT020 QNH3009INS TX26/2020Z TN16/2113Z
KPIE 
9nm N 
201741Z 2018/2118 33009KT P6SM FEW012 SCT030 BKN150 FM210200 35005KT P6SM FEW250 FM211000 02007KT P6SM FEW200
KTPA 
13nm NE 
201741Z 2018/2124 33009KT P6SM FEW012 SCT030 BKN150 FM210200 35005KT P6SM FEW250 FM211200 02005KT P6SM FEW250 FM211800 34007KT P6SM FEW250
NOTAMs
Click for the latest NOTAMs
NOTAMs are issued by the DoD/FAA and will open in a separate window not controlled by AirNav.

 

 
 

Would you like to see your business listed on this page?

 If your business provides an interesting product or service to pilots, flight crews, aircraft, or users of the John Hopkins All Childrens Hospital Heliport, you should consider listing it here.  To start the listing process, click on the button below
 
Add a business
 

Other Pages about John Hopkins All Childrens Hospital Heliport

Update a link
 
Copyright © AirNav, LLC. All rights reserved. Privacy Policy  Contact